Terminal Aerodrome Forecast
Issued by NWS Sterling, VA

Current Version | Previous Version | Graphics & Text | Print | Product List | Glossary On
Versions: 1 2 3 4 5 6 7 8 9 10 11 12 13
000
FTUS41 KLWX 222300 RRA
TAFMRB
TAF
KMRB 222343Z 2300/2324 35005KT P6SM SCT060
     FM230200 34009KT P6SM SCT030
     FM231100 31014G22KT P6SM SCT200
     FM231400 31020G30KT P6SM BKN200
     FM232200 31015KT P6SM FEW200=

USA.gov is the U.S. government's official web portal to all federal, state and local government web resources and services.